createdAt,value
2019-04-04T00:00:14.289Z,96.02
2019-04-04T00:05:12.311Z,96.03
2019-04-04T00:10:10.414Z,96.02
2019-04-04T00:15:08.051Z,96.18
2019-04-04T00:20:14.131Z,96.32
2019-04-04T00:25:10.646Z,96.54
2019-04-04T00:30:11.445Z,96.73
2019-04-04T00:35:08.988Z,96.89
2019-04-04T00:40:06.614Z,96.89
2019-04-04T00:45:07.791Z,96.92
2019-04-04T00:50:09.885Z,96.9
2019-04-04T00:55:07.448Z,96.76
2019-04-04T01:00:35.530Z,96.54
2019-04-04T01:05:20.201Z,96.33
2019-04-04T01:10:19.590Z,96.25
2019-04-04T01:15:12.263Z,96.07
2019-04-04T01:20:11.238Z,96.13
2019-04-04T01:25:15.798Z,96.31
2019-04-04T01:30:25.036Z,96.43
2019-04-04T01:35:18.238Z,96.54
2019-04-04T01:40:14.143Z,96.57
2019-04-04T01:45:13.054Z,96.48
2019-04-04T01:50:14.362Z,96.55
2019-04-04T01:55:17.147Z,96.6
2019-04-04T02:00:15.793Z,96.57
2019-04-04T02:05:16.537Z,96.86
2019-04-04T02:10:13.250Z,97.15
2019-04-04T02:15:14.919Z,97.11
2019-04-04T02:20:15.080Z,97.36
2019-04-04T02:25:16.317Z,97.51
2019-04-04T02:30:15.960Z,97.85
2019-04-04T02:35:19.320Z,97.76
2019-04-04T02:40:20.967Z,97.82
2019-04-04T02:45:14.451Z,96.24
2019-04-04T02:50:21.869Z,94.73
2019-04-04T02:55:17.344Z,94.27
2019-04-04T03:00:19.725Z,93.89
2019-04-04T03:05:10.213Z,94.01
2019-04-04T03:10:06.681Z,94.22
2019-04-04T03:15:13.739Z,94.15
2019-04-04T03:20:30.577Z,94.32
2019-04-04T03:25:08.643Z,94.81
2019-04-04T03:30:23.574Z,95.11
2019-04-04T03:35:25.536Z,95.2
2019-04-04T03:40:14.294Z,95.2
2019-04-04T03:45:12.962Z,95.25
2019-04-04T03:50:20.064Z,95.23
2019-04-04T03:55:12.716Z,95.22
2019-04-04T04:00:15.587Z,95.36
2019-04-04T04:05:17.699Z,95.35
2019-04-04T04:10:12.151Z,95.3
2019-04-04T04:15:04.474Z,95.24
2019-04-04T04:20:08.783Z,95.51
2019-04-04T04:25:16.780Z,95.55
2019-04-04T04:30:13.033Z,95.54
2019-04-04T04:35:13.692Z,95.67
2019-04-04T04:40:13.593Z,95.71
2019-04-04T04:45:13.838Z,95.76
2019-04-04T04:50:13.259Z,95.83
2019-04-04T04:55:11.934Z,95.74
2019-04-04T05:00:09.219Z,95.96
2019-04-04T05:05:12.078Z,95.76
2019-04-04T05:10:28.443Z,95.73
2019-04-04T05:15:12.045Z,95.75
2019-04-04T05:20:11.661Z,95.75
2019-04-04T05:25:12.880Z,95.66
2019-04-04T05:30:15.785Z,95.36
2019-04-04T05:35:14.998Z,95.32
2019-04-04T05:40:11.565Z,95.1
2019-04-04T05:45:14.266Z,95.57
2019-04-04T05:50:16.132Z,95.98
2019-04-04T05:55:16.530Z,96.12
2019-04-04T06:00:12.789Z,95.64
2019-04-04T06:05:11.033Z,95.44
2019-04-04T06:10:04.344Z,95.46
2019-04-04T06:15:05.697Z,95.23
2019-04-04T06:20:11.078Z,94.94
2019-04-04T06:25:12.006Z,94.38
2019-04-04T06:30:11.671Z,94.15
2019-04-04T06:35:10.492Z,93.83
2019-04-04T06:40:09.458Z,93.97
2019-04-04T06:45:10.996Z,93.55
2019-04-04T06:50:14.232Z,93.24
2019-04-04T06:55:07.772Z,93.85
2019-04-04T07:00:15.286Z,94.09
2019-04-04T07:05:10.919Z,93.38
2019-04-04T07:10:16.210Z,93.48
2019-04-04T07:15:15.830Z,93.67
2019-04-04T07:20:08.992Z,93.63
2019-04-04T07:25:09.482Z,93.51
2019-04-04T07:30:11.940Z,93.6
2019-04-04T07:35:16.743Z,93.12
2019-04-04T07:40:10.968Z,93.2
2019-04-04T07:45:15.219Z,93.03
2019-04-04T07:50:16.232Z,93.13
2019-04-04T07:55:15.213Z,93.03
2019-04-04T08:00:11.575Z,93.41
2019-04-04T08:05:13.238Z,94.55
2019-04-04T08:10:20.686Z,94.49
2019-04-04T08:15:11.788Z,93.95
2019-04-04T08:20:17.697Z,92.36
2019-04-04T08:25:17.085Z,92.35
2019-04-04T08:30:12.576Z,93.29
2019-04-04T08:35:12.504Z,93.29
2019-04-04T08:40:11.994Z,92.3
2019-04-04T08:45:13.160Z,91.71
2019-04-04T08:50:17.306Z,92.62
2019-04-04T08:55:18.939Z,92.45
2019-04-04T09:00:09.875Z,93.27
2019-04-04T09:05:19.183Z,92.18
2019-04-04T09:10:22.260Z,91.62
2019-04-04T09:15:09.566Z,91.84
2019-04-04T09:20:18.231Z,90.54
2019-04-04T09:25:18.350Z,89.28
2019-04-04T09:30:11.809Z,89.4
2019-04-04T09:35:14.245Z,89.91
2019-04-04T09:40:14.522Z,90.39
2019-04-04T09:45:15.215Z,91.05
2019-04-04T09:50:17.851Z,89.03
2019-04-04T09:55:16.955Z,89.13
2019-04-04T10:00:10.033Z,89.1
2019-04-04T10:05:14.167Z,87.9
2019-04-04T10:10:09.397Z,86.37
2019-04-04T10:15:11.656Z,85.49
2019-04-04T10:20:11.658Z,86.04
2019-04-04T10:25:15.105Z,85.22
2019-04-04T10:30:12.426Z,84.87
2019-04-04T10:35:12.706Z,83.64
2019-04-04T10:40:12.171Z,83.92
2019-04-04T10:45:08.739Z,85.29
2019-04-04T10:50:07.763Z,86.85
2019-04-04T10:55:11.474Z,87.07
2019-04-04T11:00:15.308Z,86.78
2019-04-04T11:05:11.908Z,87.87
2019-04-04T11:10:25.386Z,88.17
2019-04-04T11:15:11.868Z,88.71
2019-04-04T11:20:12.825Z,89.49
2019-04-04T11:25:14.393Z,89.18
2019-04-04T11:30:15.375Z,88.65
2019-04-04T11:35:17.366Z,88.55
2019-04-04T11:40:14.960Z,89.79
2019-04-04T11:45:14.563Z,90.61
2019-04-04T11:50:17.518Z,88.66
2019-04-04T11:55:09.104Z,90.16
2019-04-04T12:00:14.927Z,90.98
2019-04-04T12:05:09.330Z,91.14
2019-04-04T12:10:17.853Z,91.68
2019-04-04T12:15:10.048Z,92.8
2019-04-04T12:20:11.285Z,93.99
2019-04-04T12:25:12.665Z,94.36
2019-04-04T12:30:12.474Z,94.08
2019-04-04T12:35:14.874Z,94.38
2019-04-04T12:40:24.817Z,94.45
2019-04-04T12:45:12.081Z,93.14
2019-04-04T12:50:12.419Z,94.19
2019-04-04T12:55:15.027Z,94.05
2019-04-04T13:00:12.019Z,93.96
2019-04-04T13:05:20.339Z,94.03
2019-04-04T13:10:15.365Z,93.96
2019-04-04T13:15:14.420Z,94.42
2019-04-04T13:20:19.500Z,95.22
2019-04-04T13:25:21.435Z,93.99
2019-04-04T13:30:17.680Z,93.07
2019-04-04T13:35:23.180Z,93.51
2019-04-04T13:40:13.107Z,92.55
2019-04-04T13:45:18.213Z,94.81
2019-04-04T13:50:20.308Z,95.09
2019-04-04T13:55:21.557Z,95.12
2019-04-04T14:00:13.890Z,95.3
2019-04-04T14:05:17.268Z,95.22
2019-04-04T14:10:11.719Z,95.19
2019-04-04T14:15:11.849Z,95.71
2019-04-04T14:20:11.310Z,96.52
2019-04-04T14:25:15.238Z,96.75
2019-04-04T14:30:15.273Z,95.48
2019-04-04T14:35:12.715Z,96.34
2019-04-04T14:40:14.424Z,95.8
2019-04-04T14:45:13.418Z,96.28
2019-04-04T14:50:12.960Z,95.16
2019-04-04T14:55:12.005Z,94.39
2019-04-04T15:00:08.702Z,94.48
2019-04-04T15:05:05.394Z,93.68
2019-04-04T15:10:13.093Z,91.66
2019-04-04T15:15:12.631Z,90.92
2019-04-04T15:20:15.056Z,92.45
2019-04-04T15:25:15.266Z,93.73
2019-04-04T15:30:11.867Z,92.5
2019-04-04T15:35:09.996Z,91.17
2019-04-04T15:40:10.299Z,90.94
2019-04-04T15:45:09.308Z,92.04
2019-04-04T15:50:08.776Z,90.87
2019-04-04T15:55:12.697Z,92.12
2019-04-04T16:00:12.920Z,91.23
2019-04-04T16:05:10.804Z,90.93
2019-04-04T16:10:21.651Z,89.81
2019-04-04T16:15:07.830Z,89.91
2019-04-04T16:20:10.868Z,90.25
2019-04-04T16:25:12.438Z,91.66
2019-04-04T16:30:07.962Z,92.22
2019-04-04T16:35:11.876Z,92.16
2019-04-04T16:40:14.796Z,92.82
2019-04-04T16:45:12.561Z,90.07
2019-04-04T16:50:09.572Z,89.11
2019-04-04T16:55:12.694Z,89.92
2019-04-04T17:00:12.125Z,89.71
2019-04-04T17:05:18.451Z,89.7
2019-04-04T17:10:11.847Z,88.96
2019-04-04T17:15:13.974Z,89.83
2019-04-04T17:20:14.706Z,91.22
2019-04-04T17:25:16.019Z,90.26
2019-04-04T17:30:12.854Z,90.97
2019-04-04T17:35:16.674Z,93.35
2019-04-04T17:40:14.478Z,92.96
2019-04-04T17:45:13.815Z,94.64
2019-04-04T17:50:18.546Z,94.77
2019-04-04T17:55:14.324Z,94.89
2019-04-04T18:00:14.962Z,96.36
2019-04-04T18:05:18.317Z,95.86
2019-04-04T18:10:06.857Z,95.76
2019-04-04T18:15:18.633Z,95.93
2019-04-04T18:20:14.314Z,96.39
2019-04-04T18:25:13.531Z,97.1
2019-04-04T18:30:11.371Z,96.74
2019-04-04T18:35:13.077Z,97.86
2019-04-04T18:40:15.098Z,98.23
2019-04-04T18:45:11.917Z,97.89
2019-04-04T18:50:10.168Z,98.04
2019-04-04T18:55:21.954Z,98.18
2019-04-04T19:00:09.457Z,97.75
2019-04-04T19:05:10.342Z,98.1
2019-04-04T19:10:08.088Z,98.24
2019-04-04T19:15:14.566Z,98.24
2019-04-04T19:20:16.589Z,95.22
2019-04-04T19:25:14.355Z,97.52
2019-04-04T19:30:10.662Z,98.12
2019-04-04T19:35:11.517Z,98.24
2019-04-04T19:40:10.469Z,97.33
2019-04-04T19:45:11.895Z,98.26
2019-04-04T19:50:10.239Z,97.75
2019-04-04T19:55:11.662Z,98.69
2019-04-04T20:00:14.447Z,97.53
2019-04-04T20:05:14.588Z,98.47
2019-04-04T20:10:11.184Z,97.59
2019-04-04T20:15:15.547Z,98.72
2019-04-04T20:20:13.768Z,95.96
2019-04-04T20:25:13.868Z,98.6
2019-04-04T20:30:09.726Z,96.02
2019-04-04T20:35:08.531Z,98.92
2019-04-04T20:40:11.995Z,96.17
2019-04-04T20:45:06.549Z,98.89
2019-04-04T20:50:12.216Z,95.83
2019-04-04T20:55:07.242Z,97.61
2019-04-04T21:00:07.499Z,98.27
2019-04-04T21:05:07.245Z,97.23
2019-04-04T21:10:06.473Z,97.92
2019-04-04T21:15:03.655Z,98.11
2019-04-04T21:20:06.592Z,98.23
2019-04-04T21:25:07.357Z,98.39
2019-04-04T21:30:02.911Z,98.39
2019-04-04T21:35:04.965Z,98.04
2019-04-04T21:40:05.401Z,97.77
2019-04-04T21:45:02.918Z,98.31
2019-04-04T21:50:05.651Z,98.1
2019-04-04T21:55:06.257Z,97.76
2019-04-04T22:00:02.860Z,97.59
2019-04-04T22:05:05.984Z,97.73
2019-04-04T22:10:06.844Z,97.94
2019-04-04T22:15:03.951Z,98.04
2019-04-04T22:20:06.513Z,98.22
2019-04-04T22:25:07.586Z,97.81
2019-04-04T22:30:03.664Z,98.16
2019-04-04T22:35:06.417Z,97.63
2019-04-04T22:40:07.581Z,94.75
2019-04-04T22:45:03.721Z,98.2
2019-04-04T22:50:06.425Z,97.75
2019-04-04T22:55:07.229Z,97.64
2019-04-04T23:00:03.358Z,96.57
2019-04-04T23:05:07.030Z,95.02
2019-04-04T23:15:06.585Z,98.34
2019-04-04T23:20:12.030Z,98.4
2019-04-04T23:25:06.506Z,98.29
2019-04-04T23:30:06.073Z,98.47
2019-04-04T23:35:05.472Z,95.37
2019-04-04T23:40:08.477Z,97.03
2019-04-04T23:45:04.166Z,97.05
2019-04-04T23:50:06.736Z,97.9
2019-04-04T23:55:08.301Z,98.32
